createdAt,value
2023-02-26T00:00:15.178Z,98020.84
2023-02-26T00:02:42.679Z,98022.25
2023-02-26T00:05:09.772Z,98030.25
2023-02-26T00:07:36.278Z,98032.38
2023-02-26T00:10:03.152Z,98035.44
2023-02-26T00:12:30.517Z,98040.94
2023-02-26T00:14:57.384Z,98047.41
2023-02-26T00:17:37.334Z,98048.63
2023-02-26T00:20:06.059Z,98045.84
2023-02-26T00:22:32.917Z,98056.81
2023-02-26T00:24:59.319Z,98059.97
2023-02-26T00:27:25.760Z,98055.03
2023-02-26T00:29:52.727Z,98057.31
2023-02-26T00:32:19.731Z,98057.69
2023-02-26T00:34:47.624Z,98039.72
2023-02-26T00:37:27.094Z,98049.63
2023-02-26T00:40:20.064Z,98040.28
2023-02-26T00:42:46.894Z,98053.44
2023-02-26T00:45:14.610Z,98053.06
2023-02-26T00:48:15.862Z,98044.53
2023-02-26T00:51:20.616Z,98027.88
2023-02-26T00:53:53.494Z,98041.59
2023-02-26T00:56:19.919Z,98041.97
2023-02-26T00:58:46.382Z,98043.72
2023-02-26T01:01:12.901Z,98048.00
2023-02-26T01:03:39.597Z,98049.56
2023-02-26T01:06:11.642Z,98049.66
2023-02-26T01:08:48.017Z,98040.13
2023-02-26T01:11:14.597Z,98043.16
2023-02-26T01:13:41.348Z,98050.84
2023-02-26T01:16:16.274Z,98053.72
2023-02-26T01:18:50.438Z,98056.03
2023-02-26T01:21:28.915Z,98063.09
2023-02-26T01:23:55.443Z,98059.13
2023-02-26T01:26:29.818Z,98049.28
2023-02-26T01:28:56.424Z,98056.03
2023-02-26T01:32:00.512Z,98057.72
2023-02-26T01:34:36.966Z,98035.84
2023-02-26T01:37:25.025Z,98058.63
2023-02-26T01:40:28.771Z,98063.66
2023-02-26T01:43:01.041Z,98062.38
2023-02-26T01:45:33.871Z,98084.91
2023-02-26T01:48:06.154Z,98079.72
2023-02-26T01:50:38.463Z,98100.84
2023-02-26T01:53:15.058Z,98102.63
2023-02-26T01:55:44.316Z,98105.59
2023-02-26T01:58:11.486Z,98122.94
2023-02-26T02:00:38.093Z,98109.88
2023-02-26T02:03:05.053Z,98123.94
2023-02-26T02:06:03.904Z,98132.69
2023-02-26T02:08:33.968Z,98138.97
2023-02-26T02:11:00.541Z,98148.75
2023-02-26T02:13:34.616Z,98147.47
2023-02-26T02:16:11.795Z,98139.94
2023-02-26T02:18:56.848Z,98163.38
2023-02-26T02:21:29.985Z,98160.72
2023-02-26T02:24:14.229Z,98162.91
2023-02-26T02:26:54.368Z,98160.13
2023-02-26T02:29:33.263Z,98168.13
2023-02-26T02:32:16.246Z,98176.28
2023-02-26T02:34:52.100Z,98171.56
2023-02-26T02:37:25.245Z,98172.75
2023-02-26T02:40:04.534Z,98177.41
2023-02-26T02:42:37.579Z,98187.88
2023-02-26T02:45:24.248Z,98182.50
2023-02-26T02:48:00.718Z,98190.19
2023-02-26T02:50:34.016Z,98181.94
2023-02-26T02:53:09.473Z,98181.09
2023-02-26T02:55:40.660Z,98191.09
2023-02-26T02:58:14.842Z,98195.00
2023-02-26T03:00:47.861Z,98211.72
2023-02-26T03:03:35.453Z,98215.03
2023-02-26T03:06:02.190Z,98220.13
2023-02-26T03:08:33.764Z,98225.44
2023-02-26T03:11:00.714Z,98228.16
2023-02-26T03:13:27.753Z,98239.88
2023-02-26T03:16:39.116Z,98230.28
2023-02-26T03:19:31.050Z,98228.59
2023-02-26T03:22:11.436Z,98244.06
2023-02-26T03:24:48.381Z,98239.44
2023-02-26T03:27:26.473Z,98236.31
2023-02-26T03:30:18.718Z,98243.94
2023-02-26T03:32:59.127Z,98247.28
2023-02-26T03:35:45.869Z,98244.13
2023-02-26T03:38:18.615Z,98244.44
2023-02-26T03:40:55.195Z,98246.72
2023-02-26T03:43:33.104Z,98252.09
2023-02-26T03:46:04.964Z,98256.09
2023-02-26T03:48:34.361Z,98259.50
2023-02-26T03:51:05.794Z,98264.91
2023-02-26T03:53:54.804Z,98272.44
2023-02-26T03:56:21.157Z,98277.66
2023-02-26T03:58:47.651Z,98283.94
2023-02-26T04:01:20.848Z,98291.63
2023-02-26T04:03:57.705Z,98288.44
2023-02-26T04:06:25.500Z,98289.06
2023-02-26T04:08:52.581Z,98293.00
2023-02-26T04:11:21.316Z,98291.09
2023-02-26T04:13:48.051Z,98305.84
2023-02-26T04:16:15.179Z,98296.66
2023-02-26T04:18:42.595Z,98311.13
2023-02-26T04:21:20.265Z,98321.25
2023-02-26T04:23:46.831Z,98325.19
2023-02-26T04:26:14.567Z,98336.19
2023-02-26T04:28:41.836Z,98326.78
2023-02-26T04:31:10.396Z,98335.50
2023-02-26T04:33:37.083Z,98325.94
2023-02-26T04:36:06.109Z,98304.31
2023-02-26T04:38:32.594Z,98335.78
2023-02-26T04:40:59.008Z,98341.16
2023-02-26T04:43:25.475Z,98352.31
2023-02-26T04:45:51.947Z,98353.41
2023-02-26T04:48:18.788Z,98357.25
2023-02-26T04:50:46.146Z,98358.25
2023-02-26T04:53:12.856Z,98372.50
2023-02-26T04:55:41.437Z,98368.59
2023-02-26T04:58:08.710Z,98369.41
2023-02-26T05:00:35.545Z,98372.78
2023-02-26T05:03:01.960Z,98386.44
2023-02-26T05:05:28.606Z,98378.78
2023-02-26T05:07:56.764Z,98385.38
2023-02-26T05:10:24.280Z,98385.53
2023-02-26T05:12:51.069Z,98394.44
2023-02-26T05:15:17.534Z,98385.25
2023-02-26T05:17:47.423Z,98408.06
2023-02-26T05:20:15.489Z,98401.00
2023-02-26T05:22:42.776Z,98391.63
2023-02-26T05:25:12.471Z,98401.94
2023-02-26T05:27:40.315Z,98397.91
2023-02-26T05:30:07.822Z,98396.31
2023-02-26T05:32:34.215Z,98398.84
2023-02-26T05:35:01.033Z,98394.06
2023-02-26T05:37:27.550Z,98394.31
2023-02-26T05:39:53.954Z,98392.63
2023-02-26T05:42:20.355Z,98395.81
2023-02-26T05:44:46.755Z,98404.00
2023-02-26T05:47:13.188Z,98418.44
2023-02-26T05:49:39.972Z,98417.00
2023-02-26T05:52:06.360Z,98432.69
2023-02-26T05:54:32.948Z,98401.19
2023-02-26T05:56:59.765Z,98444.75
2023-02-26T05:59:26.588Z,98452.47
2023-02-26T06:01:53.229Z,98462.69
2023-02-26T06:04:19.859Z,98467.28
2023-02-26T06:06:46.398Z,98474.91
2023-02-26T06:09:12.958Z,98483.13
2023-02-26T06:11:40.596Z,98491.25
2023-02-26T06:14:07.494Z,98507.47
2023-02-26T06:16:35.894Z,98504.34
2023-02-26T06:19:02.825Z,98521.03
2023-02-26T06:21:29.692Z,98525.72
2023-02-26T06:23:58.143Z,98539.72
2023-02-26T06:26:24.866Z,98543.31
2023-02-26T06:28:51.657Z,98547.44
2023-02-26T06:31:19.160Z,98560.44
2023-02-26T06:33:45.629Z,98553.72
2023-02-26T06:36:12.376Z,98568.81
2023-02-26T06:38:39.197Z,98564.69
2023-02-26T06:41:05.685Z,98562.53
2023-02-26T06:43:32.159Z,98583.56
2023-02-26T06:45:59.681Z,98594.81
2023-02-26T06:48:27.266Z,98600.22
2023-02-26T06:50:54.171Z,98598.50
2023-02-26T06:53:20.952Z,98610.31
2023-02-26T06:55:50.960Z,98610.00
2023-02-26T06:58:17.602Z,98612.59
2023-02-26T07:00:44.528Z,98625.66
2023-02-26T07:03:16.362Z,98632.22
2023-02-26T07:05:44.209Z,98652.09
2023-02-26T07:08:10.618Z,98652.34
2023-02-26T07:10:38.033Z,98648.63
2023-02-26T07:13:04.635Z,98662.25
2023-02-26T07:15:32.703Z,98666.63
2023-02-26T07:18:02.359Z,98664.94
2023-02-26T07:20:29.733Z,98673.44
2023-02-26T07:22:56.306Z,98670.13
2023-02-26T07:25:22.831Z,98667.63
2023-02-26T07:27:49.255Z,98682.06
2023-02-26T07:30:16.561Z,98683.06
2023-02-26T07:32:43.214Z,98686.00
2023-02-26T07:35:09.984Z,98681.03
2023-02-26T07:37:36.649Z,98688.94
2023-02-26T07:40:03.523Z,98689.78
2023-02-26T07:42:29.965Z,98690.78
2023-02-26T07:44:56.399Z,98690.44
2023-02-26T07:47:22.796Z,98697.31
2023-02-26T07:49:49.203Z,98696.13
2023-02-26T07:52:15.725Z,98706.63
2023-02-26T07:54:42.225Z,98705.00
2023-02-26T07:57:08.645Z,98696.41
2023-02-26T07:59:35.143Z,98694.31
2023-02-26T08:02:01.587Z,98695.00
2023-02-26T08:04:28.138Z,98681.56
2023-02-26T08:06:54.949Z,98696.94
2023-02-26T08:09:22.485Z,98694.66
2023-02-26T08:11:49.172Z,98711.03
2023-02-26T08:14:15.720Z,98705.34
2023-02-26T08:16:42.364Z,98708.31
2023-02-26T08:19:08.924Z,98714.81
2023-02-26T08:21:35.367Z,98708.81
2023-02-26T08:24:01.912Z,98728.06
2023-02-26T08:26:28.915Z,98718.38
2023-02-26T08:28:55.633Z,98730.16
2023-02-26T08:31:22.193Z,98727.03
2023-02-26T08:33:48.802Z,98743.25
2023-02-26T08:36:15.248Z,98743.66
2023-02-26T08:38:41.721Z,98738.41
2023-02-26T08:41:08.366Z,98744.91
2023-02-26T08:43:34.839Z,98747.72
2023-02-26T08:46:01.298Z,98769.91
2023-02-26T08:48:27.764Z,98770.44
2023-02-26T08:50:54.404Z,98780.84
2023-02-26T08:53:23.970Z,98790.00
2023-02-26T08:55:52.120Z,98797.13
2023-02-26T08:58:19.854Z,98810.09
2023-02-26T09:00:46.621Z,98806.53
2023-02-26T09:03:13.681Z,98810.19
2023-02-26T09:05:40.935Z,98818.34
2023-02-26T09:08:08.093Z,98816.06
2023-02-26T09:10:34.969Z,98826.16
2023-02-26T09:13:01.419Z,98835.47
2023-02-26T09:15:28.592Z,98838.34
2023-02-26T09:17:55.063Z,98829.03
2023-02-26T09:20:21.477Z,98836.22
2023-02-26T09:22:47.961Z,98829.31
2023-02-26T09:25:15.670Z,98836.38
2023-02-26T09:27:42.150Z,98841.63
2023-02-26T09:30:09.331Z,98845.94
2023-02-26T09:32:36.051Z,98864.16
2023-02-26T09:35:03.670Z,98874.13
2023-02-26T09:37:30.103Z,98879.97
2023-02-26T09:39:57.070Z,98865.94
2023-02-26T09:42:42.422Z,98862.03
2023-02-26T09:45:24.593Z,98875.81
2023-02-26T09:47:53.827Z,98877.38
2023-02-26T09:50:36.581Z,98892.84
2023-02-26T09:53:11.008Z,98898.97
2023-02-26T09:55:47.609Z,98899.94
2023-02-26T09:58:24.183Z,98909.78
2023-02-26T10:01:35.838Z,98912.44
2023-02-26T10:04:22.838Z,98914.47
2023-02-26T10:07:14.220Z,98909.91
2023-02-26T10:10:14.089Z,98898.81
2023-02-26T10:12:43.309Z,98885.31
2023-02-26T10:15:13.487Z,98898.25
2023-02-26T10:17:52.203Z,98883.25
2023-02-26T10:20:33.580Z,98872.13
2023-02-26T10:23:45.095Z,98855.13
2023-02-26T10:26:17.706Z,98802.03
2023-02-26T10:29:00.270Z,98788.84
2023-02-26T10:31:37.257Z,98793.88
2023-02-26T10:34:22.048Z,98801.44
2023-02-26T10:37:03.942Z,98798.69
2023-02-26T10:39:44.035Z,98800.19
2023-02-26T10:42:20.128Z,98780.81
2023-02-26T10:45:06.707Z,98737.50
2023-02-26T10:47:52.704Z,98711.09
2023-02-26T10:50:22.390Z,98716.41
2023-02-26T10:52:50.508Z,98687.66
2023-02-26T10:55:35.152Z,98692.81
2023-02-26T10:58:18.316Z,98685.28
2023-02-26T11:00:51.563Z,98669.56
2023-02-26T11:03:45.968Z,98664.19
2023-02-26T11:06:20.047Z,98665.19
2023-02-26T11:08:51.220Z,98655.16
2023-02-26T11:11:40.132Z,98648.78
2023-02-26T11:14:08.468Z,98671.81
2023-02-26T11:16:41.421Z,98697.09
2023-02-26T11:19:08.925Z,98687.84
2023-02-26T11:21:39.750Z,98683.72
2023-02-26T11:24:14.017Z,98667.53
2023-02-26T11:26:46.379Z,98693.19
2023-02-26T11:29:20.457Z,98720.19
2023-02-26T11:31:55.643Z,98722.06
2023-02-26T11:34:24.897Z,98821.44
2023-02-26T11:36:57.098Z,98756.59
2023-02-26T11:39:26.905Z,98769.94
2023-02-26T11:41:57.622Z,98753.03
2023-02-26T11:44:41.050Z,98734.59
2023-02-26T11:47:13.910Z,98736.63
2023-02-26T11:49:48.089Z,98791.72
2023-02-26T11:52:30.138Z,99101.09
2023-02-26T11:55:17.806Z,99463.94
2023-02-26T11:57:44.546Z,99493.28
2023-02-26T12:00:24.767Z,99483.63
2023-02-26T12:03:00.102Z,99464.25
2023-02-26T12:05:26.797Z,99459.72
2023-02-26T12:07:53.909Z,99464.00
2023-02-26T12:10:36.040Z,99453.13
2023-02-26T12:13:20.158Z,99464.06
2023-02-26T12:16:34.081Z,99473.56
2023-02-26T12:19:18.448Z,99497.53
2023-02-26T12:22:01.750Z,99498.84
2023-02-26T12:24:47.886Z,99509.69
2023-02-26T12:27:42.521Z,99504.56
2023-02-26T12:30:33.581Z,99496.03
2023-02-26T12:33:18.457Z,99504.72
2023-02-26T12:35:59.773Z,99494.94
2023-02-26T12:38:44.892Z,99501.03
2023-02-26T12:41:33.268Z,99497.22
2023-02-26T12:44:07.877Z,99494.59
2023-02-26T12:46:58.776Z,99487.41
2023-02-26T12:49:37.094Z,99509.81
2023-02-26T12:52:18.943Z,99510.59
2023-02-26T12:54:53.880Z,99525.03
2023-02-26T12:57:43.615Z,99513.94
2023-02-26T13:00:12.938Z,99514.88
2023-02-26T13:03:04.066Z,99508.31
2023-02-26T13:05:43.533Z,99516.59
2023-02-26T13:08:21.508Z,99492.91
2023-02-26T13:10:47.869Z,99499.19
2023-02-26T13:13:49.276Z,99514.97
2023-02-26T13:16:19.906Z,99527.81
2023-02-26T13:19:28.752Z,99504.56
2023-02-26T13:22:15.397Z,99512.44
2023-02-26T13:24:47.900Z,99510.66
2023-02-26T13:27:16.328Z,99490.03
2023-02-26T13:29:51.207Z,99486.53
2023-02-26T13:32:21.612Z,99481.97
2023-02-26T13:34:59.014Z,99482.19
2023-02-26T13:37:35.218Z,99486.78
2023-02-26T13:40:23.803Z,99464.41
2023-02-26T13:42:57.660Z,99456.22
2023-02-26T13:45:59.598Z,99436.47
2023-02-26T13:48:48.477Z,99413.56
2023-02-26T13:51:38.817Z,99403.28
2023-02-26T13:54:13.216Z,99407.91
2023-02-26T13:56:39.851Z,99391.78
2023-02-26T13:59:12.351Z,99386.66
2023-02-26T14:01:57.002Z,99393.25
2023-02-26T14:04:31.445Z,99397.47
2023-02-26T14:07:11.826Z,99398.25
2023-02-26T14:09:46.934Z,99431.84
2023-02-26T14:12:23.874Z,99442.03
2023-02-26T14:15:00.029Z,99444.94
2023-02-26T14:17:38.574Z,99432.44
2023-02-26T14:20:28.093Z,99486.78
2023-02-26T14:23:09.961Z,99487.78
2023-02-26T14:25:38.212Z,99480.38
2023-02-26T14:28:26.717Z,99478.00
2023-02-26T14:31:11.682Z,99475.03
2023-02-26T14:33:56.370Z,99474.28
2023-02-26T14:36:43.175Z,99457.72
2023-02-26T14:39:24.097Z,99446.47
2023-02-26T14:41:55.864Z,99434.13
2023-02-26T14:44:27.062Z,99454.38
2023-02-26T14:46:53.755Z,99467.28
2023-02-26T14:49:33.897Z,99465.00
2023-02-26T14:52:13.806Z,99464.69
2023-02-26T14:55:04.771Z,99456.66
2023-02-26T14:57:53.262Z,99468.38
2023-02-26T15:00:53.723Z,99464.81
2023-02-26T15:03:27.007Z,99475.16
2023-02-26T15:06:20.871Z,99476.03
2023-02-26T15:08:47.541Z,99463.59
2023-02-26T15:11:20.274Z,99477.28
2023-02-26T15:14:01.904Z,99479.47
2023-02-26T15:17:02.602Z,99468.88
2023-02-26T15:20:01.197Z,99465.59
2023-02-26T15:22:51.471Z,99458.44
2023-02-26T15:25:36.106Z,99463.56
2023-02-26T15:28:05.953Z,99456.41
2023-02-26T15:30:34.499Z,99454.28
2023-02-26T15:33:05.631Z,99482.03
2023-02-26T15:35:34.842Z,99493.97
2023-02-26T15:38:02.859Z,99492.56
2023-02-26T15:40:38.106Z,99496.44
2023-02-26T15:43:06.835Z,99497.50
2023-02-26T15:45:48.131Z,99505.34
2023-02-26T15:48:18.920Z,99494.97
2023-02-26T15:50:50.246Z,99486.44
2023-02-26T15:53:27.834Z,99486.13
2023-02-26T15:55:57.124Z,99493.53
2023-02-26T15:58:50.315Z,99501.53
2023-02-26T16:01:20.029Z,99502.91
2023-02-26T16:03:47.471Z,99501.91
2023-02-26T16:06:18.942Z,99508.75
2023-02-26T16:08:45.448Z,99512.72
2023-02-26T16:11:13.680Z,99497.53
2023-02-26T16:13:44.519Z,99506.81
2023-02-26T16:16:18.020Z,99503.34
2023-02-26T16:18:45.167Z,99514.13
2023-02-26T16:21:22.933Z,99492.91
2023-02-26T16:23:52.996Z,99480.66
2023-02-26T16:26:28.123Z,99463.44
2023-02-26T16:29:01.972Z,99475.09
2023-02-26T16:31:32.685Z,99451.06
2023-02-26T16:34:05.406Z,99450.06
2023-02-26T16:36:37.912Z,99444.38
2023-02-26T16:39:07.256Z,99441.47
2023-02-26T16:41:39.633Z,99454.06
2023-02-26T16:44:30.882Z,99434.03
2023-02-26T16:46:59.139Z,99430.44
2023-02-26T16:49:30.610Z,99427.03
2023-02-26T16:51:58.482Z,99428.75
2023-02-26T16:54:32.742Z,99408.56
2023-02-26T16:57:23.812Z,99391.13
2023-02-26T16:59:55.644Z,99351.25
2023-02-26T17:02:27.612Z,99311.66
2023-02-26T17:05:02.555Z,99306.72
2023-02-26T17:07:45.854Z,99236.91
2023-02-26T17:10:30.081Z,99189.66
2023-02-26T17:13:04.834Z,99180.44
2023-02-26T17:15:36.958Z,99176.63
2023-02-26T17:18:04.419Z,99134.44
2023-02-26T17:20:31.712Z,99095.03
2023-02-26T17:23:01.706Z,99054.44
2023-02-26T17:25:33.853Z,99034.97
2023-02-26T17:28:00.260Z,99034.81
2023-02-26T17:30:30.015Z,99031.59
2023-02-26T17:32:56.484Z,99021.19
2023-02-26T17:35:22.983Z,99008.16
2023-02-26T17:37:50.864Z,98996.97
2023-02-26T17:40:36.367Z,99003.50
2023-02-26T17:43:04.715Z,98994.78
2023-02-26T17:45:34.986Z,98976.16
2023-02-26T17:48:03.435Z,98969.03
2023-02-26T17:50:40.389Z,98994.69
2023-02-26T17:53:08.762Z,99000.84
2023-02-26T17:55:39.290Z,98988.88
2023-02-26T17:58:07.763Z,98998.13
2023-02-26T18:00:39.518Z,99009.56
2023-02-26T18:03:06.385Z,98997.44
2023-02-26T18:05:39.078Z,98991.59
2023-02-26T18:08:16.436Z,98991.47
2023-02-26T18:10:42.918Z,98990.06
2023-02-26T18:13:10.984Z,98992.81
2023-02-26T18:15:37.428Z,98991.75
2023-02-26T18:18:06.121Z,98984.34
2023-02-26T18:20:32.926Z,98966.75
2023-02-26T18:22:59.312Z,98989.56
2023-02-26T18:25:27.419Z,98986.59
2023-02-26T18:28:00.321Z,98988.53
2023-02-26T18:30:33.452Z,98991.00
2023-02-26T18:33:00.407Z,98993.25
2023-02-26T18:35:28.901Z,98989.56
2023-02-26T18:37:57.046Z,98988.72
2023-02-26T18:40:26.563Z,98976.16
2023-02-26T18:42:53.389Z,98978.13
2023-02-26T18:45:20.891Z,98985.19
2023-02-26T18:47:47.984Z,98985.09
2023-02-26T18:50:17.571Z,98992.50
2023-02-26T18:52:44.460Z,98998.47
2023-02-26T18:55:12.371Z,99000.66
2023-02-26T18:57:40.302Z,99024.53
2023-02-26T19:00:09.107Z,99001.75
2023-02-26T19:02:36.303Z,99015.28
2023-02-26T19:05:02.845Z,99008.31
2023-02-26T19:07:29.601Z,99004.19
2023-02-26T19:09:56.012Z,99011.06
2023-02-26T19:12:23.250Z,99021.00
2023-02-26T19:14:50.123Z,99020.16
2023-02-26T19:17:19.267Z,99006.38
2023-02-26T19:19:45.836Z,99000.78
2023-02-26T19:22:14.558Z,98999.81
2023-02-26T19:24:42.442Z,99000.13
2023-02-26T19:27:09.824Z,99012.41
2023-02-26T19:29:36.949Z,99000.03
2023-02-26T19:32:07.319Z,98997.59
2023-02-26T19:34:34.862Z,98998.59
2023-02-26T19:37:01.654Z,99003.81
2023-02-26T19:39:28.325Z,99003.66
2023-02-26T19:41:55.420Z,99005.91
2023-02-26T19:44:23.185Z,99003.56
2023-02-26T19:46:50.362Z,98996.22
2023-02-26T19:49:18.406Z,98999.72
2023-02-26T19:51:45.396Z,99006.47
2023-02-26T19:54:14.393Z,99003.19
2023-02-26T19:56:42.912Z,99017.31
2023-02-26T19:59:09.618Z,99018.47
2023-02-26T20:01:36.672Z,99016.06
2023-02-26T20:04:03.534Z,99037.59
2023-02-26T20:06:30.400Z,99044.16
2023-02-26T20:08:56.918Z,99046.97
2023-02-26T20:11:27.866Z,99067.19
2023-02-26T20:13:54.420Z,99059.69
2023-02-26T20:16:20.940Z,99073.00
2023-02-26T20:18:47.609Z,99078.38
2023-02-26T20:21:15.487Z,99090.28
2023-02-26T20:23:42.155Z,99081.41
2023-02-26T20:26:12.735Z,99092.16
2023-02-26T20:28:40.152Z,99088.28
2023-02-26T20:31:06.920Z,99096.19
2023-02-26T20:33:36.124Z,99091.84
2023-02-26T20:36:02.906Z,99103.78
2023-02-26T20:38:33.611Z,99105.47
2023-02-26T20:41:00.108Z,99103.72
2023-02-26T20:43:26.625Z,99118.25
2023-02-26T20:45:55.083Z,99118.56
2023-02-26T20:48:22.021Z,99117.88
2023-02-26T20:50:49.716Z,99114.59
2023-02-26T20:53:16.174Z,99114.28
2023-02-26T20:55:42.594Z,99124.09
2023-02-26T20:58:09.068Z,99135.19
2023-02-26T21:00:35.600Z,99136.56
2023-02-26T21:03:02.139Z,99142.53
2023-02-26T21:05:28.679Z,99145.22
2023-02-26T21:07:55.083Z,99139.19
2023-02-26T21:10:21.573Z,99143.47
2023-02-26T21:12:48.161Z,99146.09
2023-02-26T21:15:14.976Z,99139.78
2023-02-26T21:17:44.317Z,99166.91
2023-02-26T21:20:12.955Z,99153.13
2023-02-26T21:22:39.774Z,99164.06
2023-02-26T21:25:07.542Z,99178.84
2023-02-26T21:27:34.794Z,99167.25
2023-02-26T21:30:01.607Z,99190.03
2023-02-26T21:32:28.066Z,99189.88
2023-02-26T21:34:55.664Z,99194.81
2023-02-26T21:37:22.095Z,99203.53
2023-02-26T21:39:48.860Z,99214.84
2023-02-26T21:42:15.640Z,99222.66
2023-02-26T21:44:43.916Z,99235.78
2023-02-26T21:47:11.162Z,99247.03
2023-02-26T21:49:38.214Z,99262.47
2023-02-26T21:52:06.971Z,99259.84
2023-02-26T21:54:33.878Z,99250.72
2023-02-26T21:57:00.318Z,99259.28
2023-02-26T21:59:26.764Z,99254.03
2023-02-26T22:01:53.658Z,99259.44
2023-02-26T22:04:20.723Z,99255.38
2023-02-26T22:06:47.702Z,99270.72
2023-02-26T22:09:14.218Z,99255.78
2023-02-26T22:11:40.691Z,99251.69
2023-02-26T22:14:07.238Z,99247.06
2023-02-26T22:16:33.775Z,99251.13
2023-02-26T22:19:00.207Z,99248.31
2023-02-26T22:21:27.293Z,99257.44
2023-02-26T22:23:53.985Z,99249.22
2023-02-26T22:26:20.983Z,99269.69
2023-02-26T22:28:47.614Z,99267.06
2023-02-26T22:31:14.124Z,99271.25
2023-02-26T22:33:40.889Z,99257.41
2023-02-26T22:36:07.628Z,99262.25
2023-02-26T22:38:34.182Z,99258.94
2023-02-26T22:41:00.679Z,99263.22
2023-02-26T22:43:27.094Z,99266.59
2023-02-26T22:45:53.517Z,99251.91
2023-02-26T22:48:21.161Z,99276.38
2023-02-26T22:50:48.958Z,99274.47
2023-02-26T22:53:15.404Z,99247.59
2023-02-26T22:55:41.837Z,99253.25
2023-02-26T22:58:08.333Z,99254.66
2023-02-26T23:00:35.244Z,99253.66
2023-02-26T23:03:02.879Z,99267.88
2023-02-26T23:05:29.278Z,99274.88
2023-02-26T23:07:56.238Z,99268.88
2023-02-26T23:10:22.671Z,99268.28
2023-02-26T23:12:49.446Z,99291.94
2023-02-26T23:15:15.909Z,99278.47
2023-02-26T23:17:42.949Z,99284.31
2023-02-26T23:20:13.771Z,99281.25
2023-02-26T23:22:43.695Z,99286.78
2023-02-26T23:25:11.961Z,99281.94
2023-02-26T23:27:38.917Z,99265.91
2023-02-26T23:30:07.378Z,99266.53
2023-02-26T23:32:33.894Z,99271.66
2023-02-26T23:35:00.602Z,99266.44
2023-02-26T23:37:27.365Z,99264.78
2023-02-26T23:39:53.820Z,99278.44
2023-02-26T23:42:20.209Z,99282.94
2023-02-26T23:44:46.903Z,99285.31
2023-02-26T23:47:13.474Z,99292.22
2023-02-26T23:49:39.884Z,99295.91
2023-02-26T23:52:06.326Z,99302.41
2023-02-26T23:54:34.059Z,99318.97
2023-02-26T23:57:00.597Z,99308.28
2023-02-26T23:59:27.016Z,99323.72
